createdAt,value
2022-08-25T00:00:05.571Z,25.45
2022-08-25T00:02:32.444Z,25.41
2022-08-25T00:05:01.056Z,25.38
2022-08-25T00:07:29.842Z,25.38
2022-08-25T00:09:56.779Z,25.34
2022-08-25T00:12:23.781Z,25.33
2022-08-25T00:14:50.671Z,25.30
2022-08-25T00:17:17.693Z,25.30
2022-08-25T00:19:44.579Z,25.28
2022-08-25T00:22:11.532Z,25.25
2022-08-25T00:24:38.521Z,25.24
2022-08-25T00:27:06.418Z,25.20
2022-08-25T00:29:33.896Z,25.16
2022-08-25T00:32:01.094Z,25.15
2022-08-25T00:34:36.879Z,25.09
2022-08-25T00:37:09.237Z,25.04
2022-08-25T00:39:38.150Z,25.04
2022-08-25T00:42:15.871Z,25.03
2022-08-25T00:44:43.869Z,25.00
2022-08-25T00:47:11.030Z,24.99
2022-08-25T00:49:47.729Z,24.99
2022-08-25T00:52:29.347Z,24.97
2022-08-25T00:55:07.690Z,24.96
2022-08-25T00:57:42.748Z,24.99
2022-08-25T01:00:22.415Z,24.98
2022-08-25T01:02:50.596Z,24.96
2022-08-25T01:05:19.381Z,24.96
2022-08-25T01:07:46.917Z,24.95
2022-08-25T01:10:14.347Z,24.94
2022-08-25T01:12:41.772Z,24.94
2022-08-25T01:15:12.331Z,24.92
2022-08-25T01:17:54.176Z,24.92
2022-08-25T01:20:29.347Z,24.91
2022-08-25T01:22:58.425Z,24.90
2022-08-25T01:25:39.659Z,24.87
2022-08-25T01:28:06.887Z,24.82
2022-08-25T01:30:34.973Z,24.79
2022-08-25T01:33:08.544Z,24.74
2022-08-25T01:35:37.044Z,24.66
2022-08-25T01:38:06.499Z,24.62
2022-08-25T01:40:36.196Z,24.53
2022-08-25T01:43:12.092Z,24.46
2022-08-25T01:45:44.745Z,24.35
2022-08-25T01:48:14.682Z,24.30
2022-08-25T01:50:43.987Z,24.21
2022-08-25T01:53:23.586Z,24.15
2022-08-25T01:55:54.138Z,24.09
2022-08-25T01:58:26.114Z,24.03
2022-08-25T02:00:57.074Z,23.96
2022-08-25T02:03:25.572Z,23.92
2022-08-25T02:05:54.840Z,23.88
2022-08-25T02:08:23.165Z,23.83
2022-08-25T02:10:53.228Z,23.80
2022-08-25T02:13:20.749Z,23.76
2022-08-25T02:15:57.150Z,23.75
2022-08-25T02:18:24.948Z,23.71
2022-08-25T02:20:52.044Z,23.69
2022-08-25T02:23:18.939Z,23.65
2022-08-25T02:25:45.783Z,23.65
2022-08-25T02:28:12.674Z,23.62
2022-08-25T02:30:42.659Z,23.59
2022-08-25T02:33:10.444Z,23.56
2022-08-25T02:35:38.417Z,23.53
2022-08-25T02:38:06.283Z,23.53
2022-08-25T02:40:33.908Z,23.50
2022-08-25T02:43:00.797Z,23.47
2022-08-25T02:45:27.980Z,23.45
2022-08-25T02:47:54.847Z,23.41
2022-08-25T02:50:21.600Z,23.41
2022-08-25T02:52:50.516Z,23.37
2022-08-25T02:55:18.138Z,23.33
2022-08-25T02:57:45.023Z,23.31
2022-08-25T03:00:15.140Z,23.31
2022-08-25T03:02:43.478Z,23.29
2022-08-25T03:05:12.432Z,23.28
2022-08-25T03:07:39.807Z,23.26
2022-08-25T03:10:12.470Z,23.28
2022-08-25T03:12:41.613Z,23.28
2022-08-25T03:15:16.667Z,23.29
2022-08-25T03:17:46.437Z,23.27
2022-08-25T03:20:13.937Z,23.27
2022-08-25T03:22:41.244Z,23.27
2022-08-25T03:25:27.290Z,23.27
2022-08-25T03:27:54.181Z,23.24
2022-08-25T03:30:21.446Z,23.23
2022-08-25T03:32:48.713Z,23.21
2022-08-25T03:35:15.610Z,23.21
2022-08-25T03:37:42.544Z,23.17
2022-08-25T03:40:16.278Z,23.17
2022-08-25T03:42:45.729Z,23.13
2022-08-25T03:45:16.422Z,23.16
2022-08-25T03:47:49.844Z,23.12
2022-08-25T03:50:19.078Z,23.12
2022-08-25T03:52:54.852Z,23.11
2022-08-25T03:55:24.750Z,23.10
2022-08-25T03:57:54.245Z,23.09
2022-08-25T04:00:23.339Z,23.09
2022-08-25T04:02:50.245Z,23.08
2022-08-25T04:05:17.276Z,23.08
2022-08-25T04:07:44.206Z,23.10
2022-08-25T04:10:12.491Z,23.12
2022-08-25T04:12:39.630Z,23.10
2022-08-25T04:15:08.929Z,23.11
2022-08-25T04:17:39.971Z,23.08
2022-08-25T04:20:10.909Z,23.08
2022-08-25T04:22:41.068Z,23.07
2022-08-25T04:25:12.769Z,23.08
2022-08-25T04:27:39.762Z,23.07
2022-08-25T04:30:07.825Z,23.06
2022-08-25T04:32:37.196Z,23.05
2022-08-25T04:35:05.385Z,23.03
2022-08-25T04:37:33.316Z,23.03
2022-08-25T04:40:00.336Z,23.02
2022-08-25T04:42:27.550Z,23.01
2022-08-25T04:44:54.608Z,23.00
2022-08-25T04:47:22.449Z,22.99
2022-08-25T04:49:49.688Z,22.96
2022-08-25T04:52:16.730Z,22.94
2022-08-25T04:54:43.913Z,22.92
2022-08-25T04:57:11.272Z,22.88
2022-08-25T04:59:38.419Z,22.90
2022-08-25T05:02:06.645Z,22.91
2022-08-25T05:04:36.617Z,22.91
2022-08-25T05:07:05.352Z,22.93
2022-08-25T05:09:32.977Z,22.94
2022-08-25T05:12:02.349Z,22.98
2022-08-25T05:14:31.244Z,23.00
2022-08-25T05:16:59.409Z,23.05
2022-08-25T05:19:30.501Z,23.08
2022-08-25T05:21:57.674Z,23.12
2022-08-25T05:24:26.989Z,23.22
2022-08-25T05:26:54.265Z,23.26
2022-08-25T05:29:21.493Z,23.36
2022-08-25T05:31:50.781Z,23.43
2022-08-25T05:34:19.864Z,23.59
2022-08-25T05:36:47.911Z,23.71
2022-08-25T05:39:14.987Z,23.82
2022-08-25T05:41:41.894Z,24.01
2022-08-25T05:44:08.809Z,24.20
2022-08-25T05:46:36.679Z,24.38
2022-08-25T05:49:03.577Z,24.55
2022-08-25T05:51:30.484Z,24.77
2022-08-25T05:53:57.294Z,24.95
2022-08-25T05:56:24.153Z,25.14
2022-08-25T05:58:51.293Z,25.35
2022-08-25T06:01:45.206Z,25.52
2022-08-25T06:04:14.272Z,25.72
2022-08-25T06:06:41.750Z,25.90
2022-08-25T06:09:10.191Z,26.15
2022-08-25T06:11:40.231Z,26.32
2022-08-25T06:14:09.534Z,26.59
2022-08-25T06:16:38.769Z,26.81
2022-08-25T06:19:10.971Z,27.04
2022-08-25T06:21:39.624Z,27.26
2022-08-25T06:24:13.291Z,27.44
2022-08-25T06:26:42.193Z,27.67
2022-08-25T06:29:09.055Z,27.84
2022-08-25T06:31:36.591Z,28.01
2022-08-25T06:34:03.594Z,28.15
2022-08-25T06:36:30.430Z,28.29
2022-08-25T06:38:57.688Z,28.40
2022-08-25T06:41:25.595Z,28.53
2022-08-25T06:44:05.776Z,28.73
2022-08-25T06:46:36.196Z,28.87
2022-08-25T06:49:06.533Z,29.07
2022-08-25T06:51:35.892Z,29.28
2022-08-25T06:54:04.956Z,29.47
2022-08-25T06:56:32.494Z,29.71
2022-08-25T06:59:02.295Z,30.04
2022-08-25T07:01:31.833Z,30.35
2022-08-25T07:04:01.616Z,30.72
2022-08-25T07:06:32.459Z,31.21
2022-08-25T07:08:59.751Z,31.79
2022-08-25T07:11:26.993Z,32.36
2022-08-25T07:13:53.899Z,33.01
2022-08-25T07:16:21.878Z,33.68
2022-08-25T07:18:49.495Z,34.38
2022-08-25T07:21:18.784Z,35.00
2022-08-25T07:23:47.596Z,35.59
2022-08-25T07:26:39.287Z,36.17
2022-08-25T07:29:42.240Z,36.79
2022-08-25T07:32:09.545Z,37.42
2022-08-25T07:34:56.244Z,37.97
2022-08-25T07:37:47.858Z,38.58
2022-08-25T07:40:17.607Z,39.18
2022-08-25T07:42:45.614Z,39.61
2022-08-25T07:45:13.768Z,39.99
2022-08-25T07:47:42.678Z,40.23
2022-08-25T07:50:12.980Z,40.47
2022-08-25T07:52:41.808Z,40.72
2022-08-25T07:55:11.153Z,40.98
2022-08-25T07:57:41.495Z,41.28
2022-08-25T08:00:11.122Z,41.51
2022-08-25T08:02:39.858Z,41.75
2022-08-25T08:05:08.991Z,42.06
2022-08-25T08:07:43.411Z,42.31
2022-08-25T08:13:03.169Z,42.92
2022-08-25T08:15:30.516Z,43.04
2022-08-25T08:17:59.479Z,43.12
2022-08-25T08:20:27.177Z,43.22
2022-08-25T08:22:55.894Z,43.33
2022-08-25T08:25:27.388Z,43.48
2022-08-25T08:27:55.898Z,43.47
2022-08-25T08:30:26.052Z,43.42
2022-08-25T08:33:11.584Z,43.28
2022-08-25T08:35:41.086Z,43.07
2022-08-25T08:38:14.454Z,42.95
2022-08-25T08:41:23.309Z,42.86
2022-08-25T08:47:17.019Z,43.13
2022-08-25T08:50:24.921Z,43.39
2022-08-25T08:53:34.122Z,43.64
2022-08-25T08:56:08.916Z,43.91
2022-08-25T08:58:51.492Z,44.26
2022-08-25T09:01:31.774Z,44.55
2022-08-25T09:04:32.410Z,44.78
2022-08-25T09:07:07.661Z,45.07
2022-08-25T09:09:41.292Z,45.34
2022-08-25T09:12:26.338Z,45.54
2022-08-25T09:16:09.694Z,45.87
2022-08-25T09:19:24.027Z,46.27
2022-08-25T09:22:44.034Z,46.59
2022-08-25T09:28:43.051Z,47.10
2022-08-25T09:31:41.054Z,47.31
2022-08-25T09:34:17.454Z,47.59
2022-08-25T09:36:45.846Z,47.60
2022-08-25T09:39:14.789Z,47.59
2022-08-25T09:41:56.137Z,47.61
2022-08-25T09:44:41.375Z,47.63
2022-08-25T09:47:18.636Z,47.78
2022-08-25T09:49:57.291Z,47.88
2022-08-25T09:52:41.414Z,48.01
2022-08-25T09:55:08.534Z,48.24
2022-08-25T09:57:43.050Z,48.44
2022-08-25T10:00:30.727Z,48.67
2022-08-25T10:03:22.739Z,48.83
2022-08-25T10:06:12.987Z,48.96
2022-08-25T10:09:00.810Z,48.93
2022-08-25T10:11:48.314Z,48.93
2022-08-25T10:14:34.980Z,48.92
2022-08-25T10:17:27.845Z,48.78
2022-08-25T10:20:22.069Z,48.54
2022-08-25T10:22:50.727Z,48.40
2022-08-25T10:25:31.053Z,48.29
2022-08-25T10:28:34.247Z,48.15
2022-08-25T10:31:44.497Z,48.15
2022-08-25T10:34:51.810Z,48.07
2022-08-25T10:37:52.242Z,48.00
2022-08-25T10:40:37.263Z,48.04
2022-08-25T10:43:25.787Z,48.19
2022-08-25T10:46:18.782Z,48.19
2022-08-25T10:48:58.692Z,48.11
2022-08-25T10:51:51.063Z,48.10
2022-08-25T10:54:27.295Z,48.15
2022-08-25T10:57:22.342Z,48.19
2022-08-25T11:00:14.347Z,48.20
2022-08-25T11:03:17.207Z,48.15
2022-08-25T11:06:20.819Z,47.97
2022-08-25T11:09:05.288Z,48.06
2022-08-25T11:12:03.118Z,48.26
2022-08-25T11:14:49.136Z,48.59
2022-08-25T11:17:50.282Z,48.74
2022-08-25T11:20:26.916Z,48.66
2022-08-25T11:23:28.239Z,48.18
2022-08-25T11:26:09.517Z,47.63
2022-08-25T11:28:54.309Z,47.13
2022-08-25T11:31:23.310Z,46.90
2022-08-25T11:33:52.330Z,46.71
2022-08-25T11:36:37.777Z,46.48
2022-08-25T11:39:36.417Z,46.16
2022-08-25T11:42:43.259Z,45.69
2022-08-25T11:45:54.801Z,45.35
2022-08-25T11:48:44.242Z,45.34
2022-08-25T11:51:33.815Z,45.29
2022-08-25T11:54:32.539Z,45.16
2022-08-25T11:57:07.237Z,45.08
2022-08-25T11:59:57.520Z,44.87
2022-08-25T12:02:51.180Z,44.35
2022-08-25T12:05:24.180Z,43.86
2022-08-25T12:08:12.274Z,43.36
2022-08-25T12:11:10.643Z,42.77
2022-08-25T12:14:22.983Z,42.27
2022-08-25T12:16:56.702Z,41.93
2022-08-25T12:19:35.546Z,41.68
2022-08-25T12:22:03.594Z,41.48
2022-08-25T12:24:47.863Z,41.25
2022-08-25T12:27:37.236Z,40.99
2022-08-25T12:30:36.790Z,40.77
2022-08-25T12:33:09.834Z,40.62
2022-08-25T12:35:52.802Z,40.51
2022-08-25T12:38:51.843Z,40.32
2022-08-25T12:41:24.430Z,40.26
2022-08-25T12:44:08.816Z,40.25
2022-08-25T12:46:39.448Z,40.23
2022-08-25T12:49:15.428Z,40.24
2022-08-25T12:51:53.717Z,40.28
2022-08-25T12:54:47.504Z,40.33
2022-08-25T12:57:40.467Z,40.42
2022-08-25T13:00:23.213Z,40.45
2022-08-25T13:03:56.239Z,40.24
2022-08-25T13:07:04.740Z,40.01
2022-08-25T13:09:31.470Z,39.88
2022-08-25T13:12:18.555Z,39.80
2022-08-25T13:14:57.471Z,39.80
2022-08-25T13:17:34.651Z,39.86
2022-08-25T13:20:29.255Z,39.81
2022-08-25T13:23:01.091Z,39.74
2022-08-25T13:25:33.230Z,39.64
2022-08-25T13:28:06.043Z,39.49
2022-08-25T13:30:37.041Z,39.35
2022-08-25T13:33:20.524Z,39.17
2022-08-25T13:36:11.929Z,39.04
2022-08-25T13:38:39.748Z,38.94
2022-08-25T13:41:09.709Z,38.82
2022-08-25T13:43:39.375Z,38.78
2022-08-25T13:46:07.938Z,38.78
2022-08-25T13:48:49.518Z,38.95
2022-08-25T13:51:31.882Z,39.14
2022-08-25T13:54:03.247Z,39.30
2022-08-25T13:56:41.204Z,39.51
2022-08-25T13:59:40.030Z,39.64
2022-08-25T14:02:15.253Z,39.67
2022-08-25T14:04:51.280Z,39.61
2022-08-25T14:07:22.456Z,39.57
2022-08-25T14:10:00.013Z,39.54
2022-08-25T14:12:45.365Z,39.56
2022-08-25T14:15:29.377Z,39.55
2022-08-25T14:18:10.158Z,39.48
2022-08-25T14:20:50.652Z,39.39
2022-08-25T14:23:27.098Z,39.31
2022-08-25T14:25:57.660Z,39.23
2022-08-25T14:28:31.957Z,39.17
2022-08-25T14:31:13.488Z,39.14
2022-08-25T14:33:53.694Z,39.11
2022-08-25T14:36:20.743Z,39.09
2022-08-25T14:38:54.545Z,39.03
2022-08-25T14:41:23.987Z,39.01
2022-08-25T14:43:51.000Z,38.98
2022-08-25T14:46:26.626Z,38.93
2022-08-25T14:49:01.475Z,38.90
2022-08-25T14:51:32.926Z,38.90
2022-08-25T14:54:04.281Z,38.92
2022-08-25T14:56:33.117Z,38.91
2022-08-25T14:59:01.206Z,38.85
2022-08-25T15:01:32.900Z,38.84
2022-08-25T15:04:13.117Z,38.81
2022-08-25T15:06:47.372Z,38.81
2022-08-25T15:09:17.235Z,38.83
2022-08-25T15:11:50.591Z,38.90
2022-08-25T15:14:29.212Z,38.91
2022-08-25T15:17:02.182Z,38.97
2022-08-25T15:19:35.154Z,38.97
2022-08-25T15:22:02.017Z,39.18
2022-08-25T15:24:28.957Z,39.04
2022-08-25T15:27:05.647Z,38.99
2022-08-25T15:29:40.890Z,38.91
2022-08-25T15:32:08.886Z,38.80
2022-08-25T15:34:36.685Z,38.70
2022-08-25T15:37:16.567Z,38.55
2022-08-25T15:39:47.718Z,38.42
2022-08-25T15:42:17.805Z,38.28
2022-08-25T15:44:53.081Z,38.19
2022-08-25T15:47:22.527Z,38.04
2022-08-25T15:49:50.255Z,37.93
2022-08-25T15:52:17.937Z,37.83
2022-08-25T15:54:45.181Z,37.74
2022-08-25T15:57:24.354Z,37.67
2022-08-25T15:59:52.454Z,37.58
2022-08-25T16:02:21.500Z,37.51
2022-08-25T16:04:48.452Z,37.44
2022-08-25T16:07:15.207Z,37.39
2022-08-25T16:09:42.312Z,37.35
2022-08-25T16:12:11.127Z,37.28
2022-08-25T16:14:40.812Z,37.26
2022-08-25T16:17:07.684Z,37.21
2022-08-25T16:19:35.735Z,37.19
2022-08-25T16:22:08.917Z,37.14
2022-08-25T16:24:44.909Z,37.10
2022-08-25T16:27:14.093Z,37.04
2022-08-25T16:29:50.050Z,36.97
2022-08-25T16:32:22.402Z,36.95
2022-08-25T16:34:49.201Z,36.91
2022-08-25T16:37:16.148Z,36.85
2022-08-25T16:39:47.477Z,36.79
2022-08-25T16:42:14.418Z,36.71
2022-08-25T16:44:41.364Z,36.65
2022-08-25T16:47:08.832Z,36.58
2022-08-25T16:49:36.283Z,36.50
2022-08-25T16:52:24.861Z,36.42
2022-08-25T16:55:15.405Z,36.34
2022-08-25T16:57:55.842Z,36.31
2022-08-25T17:00:28.163Z,36.26
2022-08-25T17:03:01.604Z,36.26
2022-08-25T17:05:29.833Z,36.24
2022-08-25T17:08:18.813Z,36.22
2022-08-25T17:10:46.098Z,36.15
2022-08-25T17:13:13.903Z,36.10
2022-08-25T17:15:47.139Z,36.01
2022-08-25T17:18:14.942Z,35.92
2022-08-25T17:20:45.132Z,35.83
2022-08-25T17:23:15.181Z,35.76
2022-08-25T17:25:45.993Z,35.70
2022-08-25T17:28:13.200Z,35.62
2022-08-25T17:30:41.652Z,35.60
2022-08-25T17:33:08.673Z,35.54
2022-08-25T17:35:51.092Z,35.49
2022-08-25T17:38:28.415Z,35.44
2022-08-25T17:40:59.644Z,35.40
2022-08-25T17:43:29.023Z,35.33
2022-08-25T17:45:59.779Z,35.28
2022-08-25T17:48:28.958Z,35.62
2022-08-25T17:51:01.078Z,35.33
2022-08-25T17:53:28.584Z,35.15
2022-08-25T17:56:02.880Z,34.99
2022-08-25T17:58:31.906Z,34.84
2022-08-25T18:00:59.361Z,34.71
2022-08-25T18:03:29.389Z,34.63
2022-08-25T18:05:58.150Z,34.51
2022-08-25T18:08:34.842Z,34.39
2022-08-25T18:11:04.728Z,34.31
2022-08-25T18:13:33.139Z,34.21
2022-08-25T18:16:00.896Z,34.12
2022-08-25T18:18:29.966Z,34.04
2022-08-25T18:20:57.099Z,33.98
2022-08-25T18:23:24.166Z,33.88
2022-08-25T18:25:51.540Z,33.80
2022-08-25T18:28:27.963Z,33.73
2022-08-25T18:30:55.572Z,33.61
2022-08-25T18:33:25.988Z,33.51
2022-08-25T18:35:58.358Z,33.40
2022-08-25T18:38:43.913Z,33.29
2022-08-25T18:41:13.547Z,33.16
2022-08-25T18:43:41.191Z,33.05
2022-08-25T18:46:08.425Z,32.94
2022-08-25T18:48:37.434Z,32.84
2022-08-25T18:51:10.531Z,32.71
2022-08-25T18:53:50.236Z,32.59
2022-08-25T18:56:19.323Z,32.50
2022-08-25T18:58:47.956Z,32.42
2022-08-25T19:01:17.044Z,32.31
2022-08-25T19:03:49.502Z,32.22
2022-08-25T19:06:34.106Z,32.09
2022-08-25T19:09:04.100Z,31.99
2022-08-25T19:11:31.020Z,31.92
2022-08-25T19:14:00.342Z,31.87
2022-08-25T19:16:38.338Z,31.77
2022-08-25T19:19:07.649Z,31.70
2022-08-25T19:21:35.726Z,31.62
2022-08-25T19:24:03.414Z,31.55
2022-08-25T19:26:37.497Z,31.46
2022-08-25T19:29:13.357Z,31.34
2022-08-25T19:31:47.340Z,31.21
2022-08-25T19:34:28.031Z,31.11
2022-08-25T19:37:06.001Z,30.99
2022-08-25T19:39:39.224Z,30.88
2022-08-25T19:42:37.085Z,30.77
2022-08-25T19:45:32.311Z,30.60
2022-08-25T19:48:01.991Z,30.42
2022-08-25T19:50:29.588Z,30.30
2022-08-25T19:52:58.015Z,30.18
2022-08-25T19:55:25.190Z,30.08
2022-08-25T19:58:03.197Z,29.98
2022-08-25T20:00:38.705Z,29.91
2022-08-25T20:03:09.281Z,29.83
2022-08-25T20:05:37.598Z,29.75
2022-08-25T20:08:05.979Z,29.68
2022-08-25T20:10:39.420Z,29.63
2022-08-25T20:13:09.471Z,29.52
2022-08-25T20:15:39.787Z,29.48
2022-08-25T20:18:07.005Z,29.39
2022-08-25T20:20:36.555Z,29.33
2022-08-25T20:23:22.874Z,29.25
2022-08-25T20:25:50.231Z,29.12
2022-08-25T20:28:18.878Z,29.05
2022-08-25T20:30:46.133Z,28.99
2022-08-25T20:33:13.509Z,28.91
2022-08-25T20:35:48.587Z,28.87
2022-08-25T20:38:15.442Z,28.81
2022-08-25T20:40:43.459Z,28.75
2022-08-25T20:43:12.152Z,28.73
2022-08-25T20:45:39.676Z,28.69
2022-08-25T20:48:07.388Z,28.63
2022-08-25T20:50:37.646Z,28.62
2022-08-25T20:53:05.727Z,28.59
2022-08-25T20:55:42.381Z,28.57
2022-08-25T20:58:09.470Z,28.54
2022-08-25T21:00:36.407Z,28.53
2022-08-25T21:03:03.292Z,28.48
2022-08-25T21:05:30.253Z,28.48
2022-08-25T21:07:58.496Z,28.43
2022-08-25T21:10:28.293Z,28.42
2022-08-25T21:12:55.854Z,28.39
2022-08-25T21:15:22.856Z,28.35
2022-08-25T21:17:54.807Z,28.33
2022-08-25T21:20:25.287Z,28.32
2022-08-25T21:22:53.374Z,28.31
2022-08-25T21:25:24.678Z,28.28
2022-08-25T21:27:51.566Z,28.26
2022-08-25T21:30:21.029Z,28.21
2022-08-25T21:32:52.790Z,28.19
2022-08-25T21:35:26.854Z,28.15
2022-08-25T21:37:53.943Z,28.09
2022-08-25T21:40:23.154Z,28.07
2022-08-25T21:42:54.350Z,28.06
2022-08-25T21:45:21.850Z,28.03
2022-08-25T21:47:54.763Z,28.00
2022-08-25T21:50:22.253Z,27.96
2022-08-25T21:52:54.784Z,27.94
2022-08-25T21:55:21.947Z,27.94
2022-08-25T21:57:49.711Z,27.92
2022-08-25T22:00:18.802Z,27.93
2022-08-25T22:02:51.875Z,27.95
2022-08-25T22:05:19.278Z,27.95
2022-08-25T22:07:47.107Z,27.93
2022-08-25T22:10:17.931Z,27.93
2022-08-25T22:12:51.214Z,27.90
2022-08-25T22:15:19.259Z,27.91
2022-08-25T22:17:48.013Z,27.89
2022-08-25T22:20:17.713Z,27.85
2022-08-25T22:22:44.467Z,27.83
2022-08-25T22:25:13.053Z,27.81
2022-08-25T22:27:43.105Z,27.77
2022-08-25T22:30:18.981Z,27.76
2022-08-25T22:32:45.974Z,27.74
2022-08-25T22:35:13.031Z,27.68
2022-08-25T22:37:40.169Z,27.63
2022-08-25T22:40:07.959Z,27.60
2022-08-25T22:42:35.129Z,27.56
2022-08-25T22:45:05.686Z,27.55
2022-08-25T22:47:34.699Z,27.50
2022-08-25T22:50:01.847Z,27.49
2022-08-25T22:52:33.622Z,27.44
2022-08-25T22:55:01.677Z,27.40
2022-08-25T22:57:31.081Z,27.38
2022-08-25T22:59:59.318Z,27.38
2022-08-25T23:02:30.164Z,27.36
2022-08-25T23:04:57.832Z,27.31
2022-08-25T23:07:28.250Z,27.28
2022-08-25T23:09:55.158Z,27.28
2022-08-25T23:12:26.409Z,27.25
2022-08-25T23:14:53.386Z,27.19
2022-08-25T23:17:20.431Z,27.17
2022-08-25T23:19:48.123Z,27.12
2022-08-25T23:22:18.365Z,27.11
2022-08-25T23:24:48.754Z,27.07
2022-08-25T23:27:19.500Z,27.03
2022-08-25T23:29:51.857Z,27.00
2022-08-25T23:32:20.367Z,26.97
2022-08-25T23:34:47.373Z,26.93
2022-08-25T23:37:16.215Z,26.91
2022-08-25T23:39:50.009Z,26.86
2022-08-25T23:42:19.122Z,26.83
2022-08-25T23:44:46.665Z,26.77
2022-08-25T23:47:16.186Z,26.75
2022-08-25T23:49:45.874Z,26.74
2022-08-25T23:52:12.701Z,26.72
2022-08-25T23:54:39.495Z,26.69
2022-08-25T23:57:06.940Z,26.68
2022-08-25T23:59:34.157Z,26.64
